createdAt,value
2019-02-05T00:01:40.070Z,89.54
2019-02-05T00:04:13.029Z,89.23
2019-02-05T00:06:45.830Z,89.62
2019-02-05T00:09:18.762Z,89.77
2019-02-05T00:11:51.578Z,89.76
2019-02-05T00:14:25.004Z,88.46
2019-02-05T00:16:57.852Z,88.76
2019-02-05T00:19:30.582Z,89.33
2019-02-05T00:22:03.371Z,89.55
2019-02-05T00:24:36.812Z,89.89
2019-02-05T00:27:09.643Z,90.08
2019-02-05T00:29:43.222Z,90.13
2019-02-05T00:32:16.065Z,89.88
2019-02-05T00:34:48.911Z,89.11
2019-02-05T00:37:21.431Z,89.13
2019-02-05T00:39:54.298Z,89.66
2019-02-05T00:42:26.981Z,89.83
2019-02-05T00:44:59.840Z,89.88
2019-02-05T00:47:32.540Z,89.79
2019-02-05T00:50:06.909Z,89.62
2019-02-05T00:52:39.874Z,89.68
2019-02-05T00:55:13.550Z,89.95
2019-02-05T00:57:46.429Z,90.17
2019-02-05T01:00:24.505Z,90.14
2019-02-05T01:03:02.427Z,90.36
2019-02-05T01:05:35.372Z,90.08
2019-02-05T01:08:08.552Z,89.77
2019-02-05T01:10:41.620Z,89.57
2019-02-05T01:13:14.352Z,89.40
2019-02-05T01:15:49.247Z,89.61
2019-02-05T01:18:21.949Z,89.54
2019-02-05T01:20:54.772Z,89.61
2019-02-05T01:23:27.565Z,89.90
2019-02-05T01:26:00.223Z,90.11
2019-02-05T01:28:33.036Z,90.25
2019-02-05T01:31:05.705Z,90.08
2019-02-05T01:33:38.686Z,90.03
2019-02-05T01:36:11.740Z,89.34
2019-02-05T01:38:44.437Z,89.15
2019-02-05T01:41:17.286Z,89.29
2019-02-05T01:43:50.097Z,89.88
2019-02-05T01:46:22.914Z,90.03
2019-02-05T01:48:55.625Z,90.34
2019-02-05T01:51:28.471Z,89.19
2019-02-05T01:54:01.999Z,89.00
2019-02-05T01:56:40.907Z,89.32
2019-02-05T01:59:09.450Z,89.10
2019-02-05T02:01:42.162Z,89.64
2019-02-05T02:04:14.849Z,90.08
2019-02-05T02:06:47.704Z,90.63
2019-02-05T02:09:20.463Z,90.36
2019-02-05T02:11:54.020Z,89.37
2019-02-05T02:14:26.721Z,89.78
2019-02-05T02:16:59.431Z,89.88
2019-02-05T02:19:32.705Z,89.19
2019-02-05T02:22:05.616Z,89.40
2019-02-05T02:24:42.494Z,89.64
2019-02-05T02:27:18.493Z,89.98
2019-02-05T02:29:55.069Z,90.15
2019-02-05T02:32:27.846Z,90.41
2019-02-05T02:35:00.690Z,90.49
2019-02-05T02:37:33.487Z,90.20
2019-02-05T02:40:07.192Z,89.95
2019-02-05T02:42:40.047Z,89.70
2019-02-05T02:45:14.051Z,90.13
2019-02-05T02:47:47.008Z,90.10
2019-02-05T02:50:19.860Z,90.29
2019-02-05T02:52:53.701Z,90.50
2019-02-05T02:55:26.626Z,90.73
2019-02-05T02:57:59.282Z,90.69
2019-02-05T03:00:32.001Z,90.80
2019-02-05T03:03:04.912Z,90.68
2019-02-05T03:05:37.679Z,89.92
2019-02-05T03:08:10.633Z,89.68
2019-02-05T03:10:43.420Z,89.91
2019-02-05T03:13:16.040Z,90.00
2019-02-05T03:15:48.841Z,90.06
2019-02-05T03:18:21.584Z,89.63
2019-02-05T03:20:54.299Z,89.34
2019-02-05T03:23:26.198Z,89.28
2019-02-05T03:25:59.273Z,89.80
2019-02-05T03:28:32.110Z,90.88
2019-02-05T03:31:05.362Z,90.98
2019-02-05T03:33:38.112Z,89.84
2019-02-05T03:36:10.922Z,89.02
2019-02-05T03:38:43.639Z,89.91
2019-02-05T03:41:16.384Z,90.13
2019-02-05T03:43:51.776Z,90.05
2019-02-05T03:46:25.040Z,89.84
2019-02-05T03:48:58.266Z,90.13
2019-02-05T03:52:09.186Z,90.48
2019-02-05T03:55:24.515Z,90.50
2019-02-05T04:02:04.290Z,90.81
2019-02-05T04:05:52.675Z,90.05
2019-02-05T04:09:08.994Z,88.82
2019-02-05T04:12:48.559Z,89.43
2019-02-05T04:16:08.966Z,89.72
2019-02-05T04:19:19.342Z,89.87
2019-02-05T04:22:27.049Z,89.02
2019-02-05T04:25:46.323Z,89.97
2019-02-05T04:29:15.208Z,90.49
2019-02-05T04:32:48.538Z,89.97
2019-02-05T04:36:57.672Z,89.24
2019-02-05T04:40:23.341Z,88.12
2019-02-05T04:43:51.728Z,89.34
2019-02-05T04:47:31.255Z,89.60
2019-02-05T04:51:05.973Z,89.42
2019-02-05T04:54:38.641Z,89.16
2019-02-05T04:57:57.499Z,88.92
2019-02-05T05:01:28.296Z,89.16
2019-02-05T05:04:36.343Z,89.63
2019-02-05T05:08:02.588Z,89.48
2019-02-05T05:10:35.418Z,87.29
2019-02-05T05:13:08.101Z,85.98
2019-02-05T05:15:40.829Z,86.52
2019-02-05T05:18:15.553Z,87.21
2019-02-05T05:20:49.066Z,87.14
2019-02-05T05:23:22.009Z,87.21
2019-02-05T05:25:55.093Z,87.43
2019-02-05T05:28:27.815Z,87.80
2019-02-05T05:31:01.004Z,87.92
2019-02-05T05:33:33.724Z,88.69
2019-02-05T05:36:06.585Z,88.73
2019-02-05T05:38:39.307Z,88.71
2019-02-05T05:41:12.154Z,88.97
2019-02-05T05:43:44.934Z,89.70
2019-02-05T05:46:17.670Z,89.64
2019-02-05T05:48:50.419Z,89.14
2019-02-05T05:51:23.183Z,88.20
2019-02-05T05:53:56.005Z,87.89
2019-02-05T05:56:28.906Z,88.33
2019-02-05T05:59:01.795Z,88.43
2019-02-05T06:01:34.630Z,87.42
2019-02-05T06:04:07.851Z,87.18
2019-02-05T06:06:40.734Z,86.93
2019-02-05T06:09:13.943Z,88.45
2019-02-05T06:11:46.739Z,89.00
2019-02-05T06:14:19.488Z,89.31
2019-02-05T06:16:52.397Z,89.11
2019-02-05T06:19:25.174Z,88.44
2019-02-05T06:21:57.913Z,88.18
2019-02-05T06:24:30.753Z,88.31
2019-02-05T06:27:03.684Z,88.51
2019-02-05T06:29:36.365Z,88.05
2019-02-05T06:32:09.783Z,87.71
2019-02-05T06:34:42.584Z,87.31
2019-02-05T06:37:15.511Z,87.26
2019-02-05T06:39:48.363Z,87.07
2019-02-05T06:42:21.925Z,87.58
2019-02-05T06:44:56.179Z,88.36
2019-02-05T06:47:29.995Z,88.92
2019-02-05T06:50:02.729Z,88.81
2019-02-05T06:52:35.678Z,88.64
2019-02-05T06:55:09.235Z,87.41
2019-02-05T06:57:42.029Z,87.49
2019-02-05T07:05:53.821Z,86.28
2019-02-05T07:08:26.730Z,86.31
2019-02-05T07:10:59.712Z,86.25
2019-02-05T07:13:32.583Z,86.56
2019-02-05T07:16:05.983Z,86.37
2019-02-05T07:18:38.793Z,86.63
2019-02-05T07:21:11.675Z,87.01
2019-02-05T07:23:44.485Z,86.75
2019-02-05T07:26:17.240Z,86.79
2019-02-05T07:28:58.184Z,86.77
2019-02-05T07:31:24.453Z,86.53
2019-02-05T07:33:57.203Z,86.43
2019-02-05T08:21:18.270Z,87.94
2019-02-05T08:23:51.091Z,84.33
2019-02-05T08:26:23.962Z,80.78
2019-02-05T08:28:56.541Z,78.30
2019-02-05T08:31:29.200Z,73.97
2019-02-05T08:34:03.328Z,73.46
2019-02-05T08:36:36.247Z,72.02
2019-02-05T08:39:11.384Z,72.26
2019-02-05T08:41:44.135Z,68.21
2019-02-05T08:44:17.279Z,66.47
2019-02-05T08:46:49.876Z,65.40
2019-02-05T08:49:22.552Z,65.41
2019-02-05T08:51:55.356Z,61.61
2019-02-05T08:54:28.052Z,56.56
2019-02-05T08:57:01.157Z,60.09
2019-02-05T08:59:33.813Z,59.24
2019-02-05T09:02:07.250Z,59.85
2019-02-05T09:04:39.972Z,57.33
2019-02-05T09:07:12.606Z,51.71
2019-02-05T09:09:45.769Z,48.17
2019-02-05T09:12:18.479Z,51.50
2019-02-05T09:14:51.184Z,50.01
2019-02-05T09:17:24.411Z,46.83
2019-02-05T09:19:57.299Z,45.35
2019-02-05T09:22:29.956Z,42.30
2019-02-05T09:25:02.740Z,40.56
2019-02-05T09:27:35.325Z,39.28
2019-02-05T09:30:12.674Z,38.25
2019-02-05T09:32:45.330Z,40.36
2019-02-05T09:35:18.323Z,41.88
2019-02-05T09:37:51.133Z,41.49
2019-02-05T09:40:30.530Z,41.02
2019-02-05T09:43:03.309Z,39.15
2019-02-05T09:45:36.151Z,36.90
2019-02-05T09:48:08.780Z,36.24
2019-02-05T09:50:44.623Z,35.17
2019-02-05T09:53:15.848Z,35.94
2019-02-05T09:55:48.620Z,34.79
2019-02-05T09:58:22.886Z,35.86
2019-02-05T10:00:55.623Z,35.94
2019-02-05T10:03:28.283Z,37.23
2019-02-05T10:06:00.944Z,35.70
2019-02-05T10:08:33.675Z,33.51
2019-02-05T10:11:06.848Z,32.41
2019-02-05T10:13:39.549Z,31.57
2019-02-05T10:16:12.352Z,30.39
2019-02-05T10:18:45.951Z,29.08
2019-02-05T10:21:18.899Z,29.90
2019-02-05T10:23:51.955Z,29.18
2019-02-05T10:26:24.672Z,29.12
2019-02-05T10:28:57.381Z,29.05
2019-02-05T10:31:30.178Z,29.57
2019-02-05T10:34:02.895Z,29.93
2019-02-05T10:36:35.853Z,29.90
2019-02-05T10:39:11.284Z,29.53
2019-02-05T10:41:44.352Z,29.60
2019-02-05T10:44:17.239Z,28.97
2019-02-05T10:46:50.036Z,28.90
2019-02-05T10:49:23.079Z,28.26
2019-02-05T10:51:55.889Z,27.75
2019-02-05T10:54:28.923Z,26.62
2019-02-05T10:57:01.582Z,26.95
2019-02-05T10:59:34.380Z,27.35
2019-02-05T11:02:07.268Z,27.98
2019-02-05T11:04:40.191Z,27.22
2019-02-05T11:07:12.931Z,26.75
2019-02-05T11:09:45.898Z,25.88
2019-02-05T11:12:18.698Z,25.81
2019-02-05T11:14:51.461Z,26.69
2019-02-05T11:17:24.243Z,27.71
2019-02-05T11:19:57.032Z,26.16
2019-02-05T11:22:29.750Z,26.29
2019-02-05T11:25:02.586Z,25.87
2019-02-05T11:27:35.347Z,26.89
2019-02-05T11:30:20.331Z,27.25
2019-02-05T11:32:48.053Z,26.46
2019-02-05T11:35:21.178Z,28.64
2019-02-05T11:37:54.877Z,28.85
2019-02-05T11:40:31.434Z,25.83
2019-02-05T11:43:04.331Z,24.16
2019-02-05T11:45:37.362Z,24.29
2019-02-05T11:48:19.101Z,25.34
2019-02-05T11:50:51.876Z,25.63
2019-02-05T11:53:24.659Z,25.94
2019-02-05T11:55:57.497Z,25.87
2019-02-05T11:58:30.532Z,24.72
2019-02-05T12:01:13.903Z,27.67
2019-02-05T12:03:46.878Z,28.80
2019-02-05T12:06:19.689Z,26.04
2019-02-05T12:08:52.355Z,25.71
2019-02-05T12:11:25.100Z,24.74
2019-02-05T12:13:58.050Z,25.06
2019-02-05T12:16:30.797Z,24.59
2019-02-05T12:19:03.603Z,23.67
2019-02-05T12:21:36.353Z,26.12
2019-02-05T12:24:09.051Z,25.83
2019-02-05T12:50:02.046Z,34.09
2019-02-05T12:52:34.755Z,31.87
2019-02-05T12:55:15.860Z,30.44
2019-02-05T12:57:42.355Z,30.25
2019-02-05T13:00:37.208Z,29.30
2019-02-05T13:03:11.557Z,31.74
2019-02-05T13:05:45.596Z,32.53
2019-02-05T13:08:18.352Z,32.58
2019-02-05T13:10:53.393Z,31.71
2019-02-05T13:13:26.210Z,32.88
2019-02-05T13:15:59.280Z,34.00
2019-02-05T13:18:32.011Z,33.40
2019-02-05T13:21:04.840Z,36.44
2019-02-05T13:23:37.413Z,37.16
2019-02-05T13:26:10.514Z,38.24
2019-02-05T13:28:43.480Z,39.51
2019-02-05T13:31:16.218Z,38.94
2019-02-05T13:33:48.894Z,36.34
2019-02-05T13:36:22.773Z,37.13
2019-02-05T13:38:55.730Z,39.32
2019-02-05T13:41:29.160Z,38.74
2019-02-05T13:44:02.190Z,35.51
2019-02-05T13:46:34.953Z,32.90
2019-02-05T13:49:07.721Z,34.27
2019-02-05T13:51:40.846Z,36.43
2019-02-05T13:54:13.694Z,39.37
2019-02-05T13:56:46.506Z,38.56
2019-02-05T13:59:19.272Z,38.04
2019-02-05T14:01:51.962Z,38.56
2019-02-05T14:04:24.735Z,39.95
2019-02-05T14:06:57.464Z,41.25
2019-02-05T14:09:30.143Z,42.47
2019-02-05T14:12:02.845Z,46.93
2019-02-05T14:14:35.506Z,50.66
2019-02-05T14:17:08.299Z,51.80
2019-02-05T14:19:41.907Z,51.86
2019-02-05T14:22:14.824Z,54.33
2019-02-05T14:24:47.489Z,55.90
2019-02-05T14:27:20.402Z,57.27
2019-02-05T14:29:52.968Z,57.68
2019-02-05T19:46:51.987Z,91.52
2019-02-05T19:49:28.070Z,91.94
2019-02-05T19:52:00.938Z,91.28
2019-02-05T19:54:33.675Z,90.57
2019-02-05T19:57:06.669Z,90.70
2019-02-05T19:59:39.746Z,90.63
2019-02-05T20:02:12.831Z,90.56
2019-02-05T20:04:45.547Z,90.29
2019-02-05T20:07:18.427Z,90.38
2019-02-05T20:09:51.382Z,90.62
2019-02-05T20:12:24.301Z,90.79
2019-02-05T20:14:57.024Z,90.03
2019-02-05T20:17:29.928Z,90.74
2019-02-05T20:20:02.814Z,90.74
2019-02-05T20:22:35.464Z,89.97
2019-02-05T20:25:09.429Z,90.02
2019-02-05T20:27:42.179Z,90.16
2019-02-05T20:30:17.350Z,90.19
2019-02-05T20:32:50.104Z,90.06
2019-02-05T20:35:22.813Z,89.43
2019-02-05T20:37:55.962Z,89.44
2019-02-05T20:40:28.918Z,90.13
2019-02-05T20:43:01.687Z,90.73
2019-02-05T20:45:35.994Z,90.93
2019-02-05T20:48:09.522Z,90.78
2019-02-05T20:50:42.726Z,90.55
2019-02-05T20:53:15.416Z,89.60
2019-02-05T20:55:48.247Z,89.10
2019-02-05T20:58:21.188Z,89.46
2019-02-05T21:00:53.966Z,89.99
2019-02-05T21:03:26.862Z,90.23
2019-02-05T21:05:59.659Z,90.24
2019-02-05T21:08:32.490Z,89.81
2019-02-05T21:11:05.925Z,89.19
2019-02-05T21:13:38.646Z,89.83
2019-02-05T21:16:11.591Z,89.60
2019-02-05T21:18:44.354Z,90.10
2019-02-05T21:21:17.069Z,89.81
2019-02-05T21:23:50.352Z,89.61
2019-02-05T21:26:23.083Z,89.40
2019-02-05T21:28:56.014Z,89.36
2019-02-05T21:31:28.914Z,89.42
2019-02-05T21:34:04.121Z,89.41
2019-02-05T21:36:36.054Z,89.30
2019-02-05T21:39:12.498Z,89.05
2019-02-05T21:41:45.392Z,89.52
2019-02-05T21:44:18.453Z,89.29
2019-02-05T21:46:51.395Z,88.87
2019-02-05T21:49:24.093Z,89.16
2019-02-05T21:51:56.986Z,89.43
2019-02-05T21:54:29.800Z,89.88
2019-02-05T21:57:02.478Z,90.59
2019-02-05T21:59:35.285Z,90.36
2019-02-05T22:02:07.957Z,89.81
2019-02-05T22:04:40.939Z,89.56
2019-02-05T22:07:13.641Z,89.18
2019-02-05T22:09:46.555Z,88.83
2019-02-05T22:12:20.201Z,89.06
2019-02-05T22:14:53.004Z,89.29
2019-02-05T22:17:26.053Z,89.89
2019-02-05T22:19:58.865Z,89.81
2019-02-05T22:22:31.653Z,89.53
2019-02-05T22:25:06.717Z,89.17
2019-02-05T22:27:39.479Z,88.91
2019-02-05T22:30:19.153Z,89.11
2019-02-05T22:32:51.885Z,89.28
2019-02-05T22:35:24.978Z,89.32
2019-02-05T22:37:58.078Z,89.07
2019-02-05T22:40:30.965Z,89.46
2019-02-05T22:43:03.795Z,89.65
2019-02-05T22:45:36.510Z,88.91
2019-02-05T22:48:09.639Z,89.47
2019-02-05T22:50:42.493Z,90.02
2019-02-05T22:53:15.283Z,90.22
2019-02-05T22:55:48.312Z,88.99
2019-02-05T22:58:24.081Z,88.45
2019-02-05T23:01:51.792Z,88.88
2019-02-05T23:05:26.489Z,88.63
2019-02-05T23:07:59.162Z,88.72
2019-02-05T23:11:19.093Z,88.82
2019-02-05T23:13:51.907Z,88.89
2019-02-05T23:16:24.779Z,88.62
2019-02-05T23:18:57.434Z,88.80
2019-02-05T23:21:30.590Z,88.74
2019-02-05T23:24:03.614Z,88.37
2019-02-05T23:26:36.357Z,88.37
2019-02-05T23:29:09.333Z,88.51
2019-02-05T23:31:42.312Z,87.46
2019-02-05T23:34:15.127Z,87.85
2019-02-05T23:36:48.974Z,88.18
2019-02-05T23:39:21.708Z,89.21
2019-02-05T23:41:54.547Z,89.54
2019-02-05T23:44:27.307Z,89.66
2019-02-05T23:47:00.665Z,89.75
2019-02-05T23:49:33.297Z,89.64
2019-02-05T23:52:06.510Z,89.83
2019-02-05T23:54:39.349Z,89.07
2019-02-05T23:57:12.043Z,88.62
2019-02-05T23:59:44.887Z,87.66
